createdAt,value
2022-09-11T00:01:14.374Z,14.84
2022-09-11T00:03:45.121Z,14.85
2022-09-11T00:06:20.433Z,14.86
2022-09-11T00:09:00.948Z,14.85
2022-09-11T00:11:30.741Z,14.83
2022-09-11T00:13:57.694Z,14.75
2022-09-11T00:16:31.446Z,14.72
2022-09-11T00:19:00.790Z,14.67
2022-09-11T00:21:28.131Z,14.65
2022-09-11T00:23:54.882Z,14.66
2022-09-11T00:26:22.244Z,14.64
2022-09-11T00:28:50.693Z,14.64
2022-09-11T00:31:28.104Z,14.65
2022-09-11T00:33:55.222Z,14.65
2022-09-11T00:36:24.496Z,14.64
2022-09-11T00:38:51.654Z,14.64
2022-09-11T00:41:22.965Z,14.63
2022-09-11T00:43:56.984Z,14.59
2022-09-11T00:46:31.402Z,14.54
2022-09-11T00:49:00.709Z,14.53
2022-09-11T00:51:31.132Z,14.55
2022-09-11T00:53:58.632Z,14.59
2022-09-11T00:56:29.632Z,14.56
2022-09-11T00:58:57.917Z,14.57
2022-09-11T01:01:24.489Z,14.57
2022-09-11T01:03:51.321Z,14.55
2022-09-11T01:06:20.984Z,14.56
2022-09-11T01:08:47.507Z,14.57
2022-09-11T01:11:25.835Z,14.59
2022-09-11T01:14:06.980Z,14.58
2022-09-11T01:16:59.871Z,14.58
2022-09-11T01:19:47.283Z,14.52
2022-09-11T01:22:35.685Z,14.54
2022-09-11T01:25:49.837Z,14.56
2022-09-11T01:28:23.309Z,14.57
2022-09-11T01:31:06.158Z,14.57
2022-09-11T01:33:44.853Z,14.60
2022-09-11T01:36:28.796Z,14.57
2022-09-11T01:39:02.333Z,14.56
2022-09-11T01:41:35.731Z,14.57
2022-09-11T01:44:28.894Z,14.57
2022-09-11T01:46:55.848Z,14.56
2022-09-11T01:49:28.068Z,14.58
2022-09-11T01:51:59.142Z,14.63
2022-09-11T01:54:32.801Z,14.64
2022-09-11T01:57:09.682Z,14.64
2022-09-11T01:59:58.943Z,14.64
2022-09-11T02:02:33.045Z,14.65
2022-09-11T02:05:15.608Z,14.64
2022-09-11T02:07:48.824Z,14.62
2022-09-11T02:10:21.133Z,14.63
2022-09-11T02:12:57.758Z,14.61
2022-09-11T02:15:33.607Z,14.60
2022-09-11T02:18:26.981Z,14.61
2022-09-11T02:20:53.751Z,14.61
2022-09-11T02:23:21.282Z,14.62
2022-09-11T02:25:48.208Z,14.58
2022-09-11T02:28:14.750Z,14.58
2022-09-11T02:30:42.977Z,14.56
2022-09-11T02:33:36.490Z,14.55
2022-09-11T02:36:22.427Z,14.53
2022-09-11T02:39:07.767Z,14.51
2022-09-11T02:42:02.616Z,14.50
2022-09-11T02:44:53.806Z,14.49
2022-09-11T02:47:55.939Z,14.48
2022-09-11T02:50:33.185Z,14.49
2022-09-11T02:53:05.720Z,14.48
2022-09-11T02:55:39.243Z,14.46
2022-09-11T02:58:15.041Z,14.48
2022-09-11T03:00:41.882Z,14.52
2022-09-11T03:03:08.383Z,14.53
2022-09-11T03:05:37.188Z,14.53
2022-09-11T03:08:04.410Z,14.55
2022-09-11T03:10:30.929Z,14.55
2022-09-11T03:12:59.666Z,14.50
2022-09-11T03:15:26.942Z,14.47
2022-09-11T03:17:53.441Z,14.46
2022-09-11T03:20:20.869Z,14.40
2022-09-11T03:22:47.548Z,14.38
2022-09-11T03:25:15.138Z,14.42
2022-09-11T03:27:42.197Z,14.42
2022-09-11T03:30:09.424Z,14.39
2022-09-11T03:32:35.910Z,14.38
2022-09-11T03:35:02.482Z,14.35
2022-09-11T03:37:29.107Z,14.35
2022-09-11T03:39:55.876Z,14.38
2022-09-11T03:42:22.651Z,14.37
2022-09-11T03:44:49.144Z,14.35
2022-09-11T03:47:15.659Z,14.35
2022-09-11T03:49:42.144Z,14.31
2022-09-11T03:52:08.641Z,14.32
2022-09-11T03:54:35.600Z,14.32
2022-09-11T03:57:02.110Z,14.33
2022-09-11T03:59:29.116Z,14.32
2022-09-11T04:01:55.733Z,14.33
2022-09-11T04:04:22.455Z,14.38
2022-09-11T04:06:49.005Z,14.37
2022-09-11T04:09:15.583Z,14.34
2022-09-11T04:11:42.035Z,14.36
2022-09-11T04:14:09.047Z,14.37
2022-09-11T04:16:35.615Z,14.31
2022-09-11T04:19:02.703Z,14.32
2022-09-11T04:21:30.027Z,14.30
2022-09-11T04:24:00.379Z,14.31
2022-09-11T04:26:29.742Z,14.35
2022-09-11T04:28:57.221Z,14.37
2022-09-11T04:31:23.709Z,14.42
2022-09-11T04:33:50.389Z,14.44
2022-09-11T04:36:19.267Z,14.46
2022-09-11T04:38:47.088Z,14.47
2022-09-11T04:41:15.877Z,14.47
2022-09-11T04:43:42.704Z,14.49
2022-09-11T04:46:17.583Z,14.49
2022-09-11T04:48:48.728Z,14.49
2022-09-11T04:51:22.892Z,14.50
2022-09-11T04:53:50.338Z,14.51
2022-09-11T04:56:17.358Z,14.53
2022-09-11T04:58:44.211Z,14.50
2022-09-11T05:01:15.757Z,14.54
2022-09-11T05:03:44.017Z,14.48
2022-09-11T05:06:16.457Z,14.51
2022-09-11T05:08:44.765Z,14.53
2022-09-11T05:11:13.500Z,14.50
2022-09-11T05:13:41.182Z,14.50
2022-09-11T05:16:10.933Z,14.51
2022-09-11T05:18:40.048Z,14.55
2022-09-11T05:21:17.936Z,14.55
2022-09-11T05:23:48.083Z,14.57
2022-09-11T05:26:17.119Z,14.60
2022-09-11T05:28:43.903Z,14.60
2022-09-11T05:31:13.473Z,14.58
2022-09-11T05:33:40.467Z,14.60
2022-09-11T05:36:07.638Z,14.61
2022-09-11T05:38:36.654Z,14.68
2022-09-11T05:41:06.367Z,14.70
2022-09-11T05:43:34.058Z,14.73
2022-09-11T05:46:01.946Z,14.78
2022-09-11T05:48:30.105Z,14.80
2022-09-11T05:51:02.247Z,14.85
2022-09-11T05:53:33.812Z,14.89
2022-09-11T05:56:15.884Z,14.90
2022-09-11T05:58:43.826Z,14.89
2022-09-11T06:01:15.614Z,14.92
2022-09-11T06:03:43.063Z,14.96
2022-09-11T06:06:11.987Z,14.97
2022-09-11T06:08:40.069Z,14.99
2022-09-11T06:11:07.784Z,14.94
2022-09-11T06:13:36.950Z,14.89
2022-09-11T06:16:03.471Z,14.97
2022-09-11T06:18:30.270Z,15.00
2022-09-11T06:21:04.175Z,15.05
2022-09-11T06:23:30.653Z,15.09
2022-09-11T06:26:14.218Z,15.09
2022-09-11T06:28:41.287Z,15.12
2022-09-11T06:31:11.427Z,15.14
2022-09-11T06:33:39.926Z,15.19
2022-09-11T06:36:10.675Z,15.23
2022-09-11T06:38:38.402Z,15.12
2022-09-11T06:41:06.708Z,15.22
2022-09-11T06:43:33.994Z,15.29
2022-09-11T06:46:05.695Z,15.25
2022-09-11T06:48:32.274Z,15.28
2022-09-11T06:51:11.400Z,15.32
2022-09-11T06:53:40.233Z,15.33
2022-09-11T06:56:09.532Z,15.32
2022-09-11T06:58:36.052Z,15.41
2022-09-11T07:01:06.879Z,15.42
2022-09-11T07:03:33.476Z,15.44
2022-09-11T07:06:00.439Z,15.40
2022-09-11T07:08:27.501Z,15.42
2022-09-11T07:10:54.526Z,15.47
2022-09-11T07:13:24.314Z,15.47
2022-09-11T07:16:00.361Z,15.52
2022-09-11T07:18:26.867Z,15.46
2022-09-11T07:20:53.333Z,15.48
2022-09-11T07:23:20.068Z,15.46
2022-09-11T07:25:46.618Z,15.48
2022-09-11T07:28:13.076Z,15.49
2022-09-11T07:30:40.553Z,15.50
2022-09-11T07:33:07.118Z,15.51
2022-09-11T07:35:36.989Z,15.58
2022-09-11T07:38:03.554Z,15.54
2022-09-11T07:40:31.309Z,15.56
2022-09-11T07:42:57.792Z,15.57
2022-09-11T07:45:24.343Z,15.62
2022-09-11T07:47:50.868Z,15.72
2022-09-11T07:50:18.094Z,15.71
2022-09-11T07:52:44.649Z,15.76
2022-09-11T07:55:11.203Z,15.76
2022-09-11T07:57:37.768Z,15.79
2022-09-11T08:00:04.598Z,15.87
2022-09-11T08:02:31.109Z,15.80
2022-09-11T08:04:58.233Z,15.71
2022-09-11T08:07:25.518Z,15.78
2022-09-11T08:10:10.136Z,15.80
2022-09-11T08:12:38.484Z,15.84
2022-09-11T08:15:05.331Z,15.91
2022-09-11T08:17:31.807Z,15.93
2022-09-11T08:19:58.284Z,15.97
2022-09-11T08:22:24.791Z,16.01
2022-09-11T08:24:51.289Z,16.04
2022-09-11T08:27:17.825Z,16.07
2022-09-11T08:29:44.689Z,16.10
2022-09-11T08:32:13.207Z,16.16
2022-09-11T08:34:39.720Z,16.14
2022-09-11T08:37:06.249Z,16.20
2022-09-11T08:39:32.727Z,16.27
2022-09-11T08:42:07.766Z,16.23
2022-09-11T08:44:47.724Z,16.39
2022-09-11T08:47:20.612Z,16.44
2022-09-11T08:50:00.972Z,16.50
2022-09-11T08:52:27.602Z,16.57
2022-09-11T08:54:57.928Z,16.63
2022-09-11T08:57:35.103Z,16.66
2022-09-11T09:00:14.568Z,16.66
2022-09-11T09:02:52.165Z,16.68
2022-09-11T09:05:41.901Z,16.71
2022-09-11T09:08:18.009Z,16.69
2022-09-11T09:10:52.845Z,16.66
2022-09-11T09:13:47.062Z,16.73
2022-09-11T09:16:32.475Z,16.49
2022-09-11T09:19:13.048Z,16.57
2022-09-11T09:21:39.497Z,16.65
2022-09-11T09:24:19.332Z,16.67
2022-09-11T09:26:52.716Z,16.74
2022-09-11T09:29:23.348Z,16.77
2022-09-11T09:31:54.949Z,16.82
2022-09-11T09:34:24.654Z,16.83
2022-09-11T09:37:18.026Z,16.91
2022-09-11T09:39:45.679Z,16.86
2022-09-11T09:42:21.111Z,16.85
2022-09-11T09:44:50.684Z,16.80
2022-09-11T09:47:17.810Z,16.89
2022-09-11T09:49:45.411Z,16.84
2022-09-11T09:52:21.110Z,16.90
2022-09-11T09:55:00.432Z,16.83
2022-09-11T09:57:34.399Z,16.85
2022-09-11T10:00:09.985Z,16.86
2022-09-11T10:02:50.934Z,16.96
2022-09-11T10:05:33.045Z,16.92
2022-09-11T10:08:03.082Z,16.86
2022-09-11T10:10:40.649Z,16.90
2022-09-11T10:13:43.783Z,16.87
2022-09-11T10:16:25.008Z,16.97
2022-09-11T10:18:53.278Z,17.09
2022-09-11T10:21:30.261Z,17.06
2022-09-11T10:24:01.068Z,17.14
2022-09-11T10:26:51.437Z,17.21
2022-09-11T10:29:26.674Z,17.38
2022-09-11T10:31:55.456Z,17.43
2022-09-11T10:34:25.402Z,17.57
2022-09-11T10:37:00.467Z,17.72
2022-09-11T10:39:30.612Z,17.89
2022-09-11T10:42:02.105Z,17.93
2022-09-11T10:44:30.739Z,18.00
2022-09-11T10:47:23.067Z,17.94
2022-09-11T10:49:49.721Z,18.05
2022-09-11T10:52:19.673Z,18.12
2022-09-11T10:55:15.831Z,18.27
2022-09-11T10:57:50.835Z,18.31
2022-09-11T11:00:27.385Z,18.28
2022-09-11T11:03:07.355Z,18.23
2022-09-11T11:06:04.153Z,18.02
2022-09-11T11:08:39.477Z,18.26
2022-09-11T11:11:14.753Z,18.45
2022-09-11T11:14:17.334Z,18.38
2022-09-11T11:16:59.630Z,18.37
2022-09-11T11:19:26.079Z,18.49
2022-09-11T11:21:55.303Z,18.45
2022-09-11T11:24:39.036Z,18.27
2022-09-11T11:27:27.521Z,18.28
2022-09-11T11:30:17.162Z,18.39
2022-09-11T11:32:43.592Z,18.69
2022-09-11T11:35:22.059Z,18.88
2022-09-11T11:37:53.248Z,19.10
2022-09-11T11:40:39.417Z,19.45
2022-09-11T11:43:17.580Z,19.28
2022-09-11T11:45:44.764Z,19.33
2022-09-11T11:48:39.601Z,19.19
2022-09-11T11:51:15.285Z,19.21
2022-09-11T11:54:20.518Z,19.69
2022-09-11T11:57:05.142Z,19.99
2022-09-11T12:00:03.226Z,19.97
2022-09-11T12:02:38.683Z,20.12
2022-09-11T12:05:11.416Z,20.25
2022-09-11T12:07:41.256Z,20.38
2022-09-11T12:10:21.737Z,20.52
2022-09-11T12:12:55.628Z,20.75
2022-09-11T12:15:24.640Z,21.15
2022-09-11T12:18:25.693Z,20.85
2022-09-11T12:20:52.960Z,21.37
2022-09-11T12:23:33.031Z,21.60
2022-09-11T12:26:22.346Z,21.65
2022-09-11T12:29:09.767Z,22.15
2022-09-11T12:31:51.615Z,22.30
2022-09-11T12:34:18.792Z,21.82
2022-09-11T12:37:33.196Z,22.37
2022-09-11T12:40:17.060Z,22.63
2022-09-11T12:42:47.716Z,22.96
2022-09-11T12:45:35.923Z,23.14
2022-09-11T12:48:06.252Z,23.44
2022-09-11T12:50:33.440Z,22.98
2022-09-11T12:53:02.499Z,23.36
2022-09-11T12:55:37.395Z,23.96
2022-09-11T12:58:22.274Z,23.37
2022-09-11T13:00:51.432Z,23.36
2022-09-11T13:03:20.123Z,23.91
2022-09-11T13:06:00.164Z,24.03
2022-09-11T13:08:30.425Z,23.61
2022-09-11T13:11:35.140Z,24.22
2022-09-11T13:14:02.076Z,24.24
2022-09-11T13:16:37.150Z,24.29
2022-09-11T13:19:10.240Z,24.41
2022-09-11T13:21:39.194Z,24.70
2022-09-11T13:24:25.768Z,24.76
2022-09-11T13:27:02.193Z,24.44
2022-09-11T13:29:31.100Z,24.94
2022-09-11T13:32:00.656Z,25.44
2022-09-11T13:34:29.452Z,25.60
2022-09-11T13:36:57.734Z,25.67
2022-09-11T13:39:26.487Z,24.74
2022-09-11T13:42:02.699Z,24.31
2022-09-11T13:44:35.488Z,24.47
2022-09-11T13:47:02.142Z,25.07
2022-09-11T13:49:37.174Z,25.02
2022-09-11T13:52:06.250Z,24.17
2022-09-11T13:54:43.095Z,23.30
2022-09-11T13:57:23.872Z,22.61
2022-09-11T13:59:53.626Z,22.45
2022-09-11T14:02:35.728Z,22.12
2022-09-11T14:05:10.438Z,21.71
2022-09-11T14:08:14.879Z,21.55
2022-09-11T14:10:48.733Z,21.38
2022-09-11T14:13:23.069Z,21.16
2022-09-11T14:15:53.189Z,20.87
2022-09-11T14:18:34.360Z,20.58
2022-09-11T14:21:04.310Z,20.63
2022-09-11T14:23:31.377Z,20.59
2022-09-11T14:26:09.080Z,20.45
2022-09-11T14:28:35.497Z,20.28
2022-09-11T14:31:07.781Z,20.44
2022-09-11T14:33:34.523Z,20.96
2022-09-11T14:36:09.171Z,21.09
2022-09-11T14:38:38.232Z,20.92
2022-09-11T14:41:07.078Z,21.17
2022-09-11T14:43:37.575Z,21.45
2022-09-11T14:46:04.319Z,21.36
2022-09-11T14:48:35.112Z,21.51
2022-09-11T14:53:32.039Z,21.60
2022-09-11T14:55:59.275Z,21.40
2022-09-11T14:58:27.341Z,21.74
2022-09-11T15:00:54.892Z,21.64
2022-09-11T15:03:22.216Z,21.77
2022-09-11T15:05:54.513Z,21.82
2022-09-11T15:08:21.051Z,21.66
2022-09-11T15:10:49.019Z,21.86
2022-09-11T15:13:15.594Z,21.66
2022-09-11T15:15:42.351Z,21.64
2022-09-11T15:18:09.456Z,21.77
2022-09-11T15:20:36.492Z,21.79
2022-09-11T15:23:03.073Z,21.35
2022-09-11T15:25:29.685Z,21.27
2022-09-11T15:27:56.414Z,21.15
2022-09-11T15:30:22.978Z,21.04
2022-09-11T15:32:49.611Z,21.11
2022-09-11T15:35:18.272Z,20.93
2022-09-11T15:37:46.776Z,20.74
2022-09-11T15:40:13.855Z,20.59
2022-09-11T15:42:40.605Z,20.60
2022-09-11T15:45:08.075Z,20.46
2022-09-11T15:47:34.642Z,20.50
2022-09-11T15:50:01.857Z,20.50
2022-09-11T15:52:29.474Z,20.45
2022-09-11T15:54:56.655Z,20.36
2022-09-11T15:57:23.221Z,20.36
2022-09-11T15:59:51.563Z,20.31
2022-09-11T16:02:20.575Z,20.14
2022-09-11T16:04:51.631Z,20.03
2022-09-11T16:07:20.128Z,20.01
2022-09-11T16:09:46.664Z,19.82
2022-09-11T16:12:15.711Z,19.81
2022-09-11T16:14:42.960Z,19.62
2022-09-11T16:17:11.950Z,19.64
2022-09-11T16:19:38.753Z,19.63
2022-09-11T16:22:07.059Z,19.64
2022-09-11T16:24:37.660Z,19.56
2022-09-11T16:27:08.736Z,19.48
2022-09-11T16:29:59.333Z,19.48
2022-09-11T16:32:28.636Z,19.45
2022-09-11T16:34:57.169Z,19.37
2022-09-11T16:37:23.936Z,19.37
2022-09-11T16:39:50.819Z,19.24
2022-09-11T16:42:21.756Z,19.26
2022-09-11T16:44:49.637Z,19.17
2022-09-11T16:47:17.204Z,19.16
2022-09-11T16:50:05.768Z,19.09
2022-09-11T16:52:31.175Z,18.95
2022-09-11T16:54:57.700Z,18.92
2022-09-11T16:57:24.216Z,18.81
2022-09-11T16:59:51.000Z,18.72
2022-09-11T17:02:17.638Z,18.70
2022-09-11T17:04:45.371Z,18.66
2022-09-11T17:07:11.938Z,18.58
2022-09-11T17:09:38.757Z,18.47
2022-09-11T17:12:05.313Z,18.36
2022-09-11T17:14:32.642Z,18.32
2022-09-11T17:16:59.125Z,18.21
2022-09-11T17:19:25.685Z,18.10
2022-09-11T17:21:52.278Z,18.10
2022-09-11T17:24:21.702Z,18.04
2022-09-11T17:26:51.323Z,17.86
2022-09-11T17:29:19.488Z,17.82
2022-09-11T17:31:46.781Z,17.77
2022-09-11T17:34:14.651Z,17.71
2022-09-11T17:36:41.459Z,17.62
2022-09-11T17:39:08.815Z,17.59
2022-09-11T17:41:35.405Z,17.57
2022-09-11T17:44:02.000Z,17.47
2022-09-11T17:46:29.552Z,17.41
2022-09-11T17:48:56.266Z,17.38
2022-09-11T17:51:25.720Z,17.36
2022-09-11T17:53:56.241Z,17.32
2022-09-11T17:56:25.876Z,17.20
2022-09-11T17:58:54.733Z,17.15
2022-09-11T18:01:22.832Z,17.05
2022-09-11T18:03:51.330Z,16.98
2022-09-11T18:06:28.343Z,16.87
2022-09-11T18:08:57.762Z,16.80
2022-09-11T18:11:24.858Z,16.71
2022-09-11T18:13:51.420Z,16.62
2022-09-11T18:16:18.074Z,16.55
2022-09-11T18:18:44.628Z,16.47
2022-09-11T18:21:12.314Z,16.38
2022-09-11T18:23:42.019Z,16.31
2022-09-11T18:26:10.317Z,16.21
2022-09-11T18:28:39.742Z,16.14
2022-09-11T18:31:07.161Z,16.12
2022-09-11T18:33:33.771Z,16.03
2022-09-11T18:36:13.440Z,15.93
2022-09-11T18:38:40.385Z,15.86
2022-09-11T18:41:06.945Z,15.78
2022-09-11T18:43:33.557Z,15.73
2022-09-11T18:46:03.200Z,15.64
2022-09-11T18:48:29.783Z,15.56
2022-09-11T18:50:56.530Z,15.48
2022-09-11T18:53:23.389Z,15.45
2022-09-11T18:56:00.210Z,15.41
2022-09-11T18:58:31.127Z,15.31
2022-09-11T19:01:00.542Z,15.25
2022-09-11T19:03:32.746Z,15.21
2022-09-11T19:06:03.626Z,15.12
2022-09-11T19:08:30.414Z,15.07
2022-09-11T19:10:56.867Z,15.05
2022-09-11T19:13:25.937Z,14.99
2022-09-11T19:15:56.885Z,14.92
2022-09-11T19:18:24.238Z,14.85
2022-09-11T19:21:03.889Z,14.81
2022-09-11T19:23:36.165Z,14.76
2022-09-11T19:26:14.664Z,14.69
2022-09-11T19:28:42.700Z,14.61
2022-09-11T19:31:12.135Z,14.54
2022-09-11T19:33:39.765Z,14.41
2022-09-11T19:36:10.742Z,14.36
2022-09-11T19:38:42.821Z,14.33
2022-09-11T19:41:12.713Z,14.29
2022-09-11T19:43:40.980Z,14.25
2022-09-11T19:46:13.683Z,14.20
2022-09-11T19:48:41.046Z,14.14
2022-09-11T19:51:16.126Z,14.07
2022-09-11T19:53:43.327Z,14.03
2022-09-11T19:56:11.519Z,14.00
2022-09-11T19:58:38.878Z,13.93
2022-09-11T20:01:09.178Z,13.83
2022-09-11T20:03:40.873Z,13.79
2022-09-11T20:06:08.910Z,13.76
2022-09-11T20:08:37.239Z,13.73
2022-09-11T20:11:06.844Z,13.67
2022-09-11T20:13:36.122Z,13.60
2022-09-11T20:16:07.067Z,13.58
2022-09-11T20:18:34.444Z,13.52
2022-09-11T20:21:06.275Z,13.46
2022-09-11T20:23:34.533Z,13.44
2022-09-11T20:26:28.676Z,13.37
2022-09-11T20:28:58.229Z,13.33
2022-09-11T20:31:27.694Z,13.33
2022-09-11T20:33:54.160Z,13.21
2022-09-11T20:36:21.518Z,13.15
2022-09-11T20:38:52.658Z,13.12
2022-09-11T20:41:23.202Z,13.12
2022-09-11T20:43:50.196Z,13.08
2022-09-11T20:46:17.022Z,13.05
2022-09-11T20:48:43.584Z,13.03
2022-09-11T20:51:11.994Z,13.01
2022-09-11T20:53:41.660Z,12.94
2022-09-11T20:56:11.168Z,12.92
2022-09-11T20:58:37.961Z,12.85
2022-09-11T21:01:06.382Z,12.79
2022-09-11T21:03:33.151Z,12.75
2022-09-11T21:06:06.887Z,12.71
2022-09-11T21:08:34.242Z,12.70
2022-09-11T21:11:04.934Z,12.65
2022-09-11T21:13:35.154Z,12.64
2022-09-11T21:16:06.427Z,12.60
2022-09-11T21:18:33.000Z,12.56
2022-09-11T21:20:59.564Z,12.55
2022-09-11T21:23:26.223Z,12.46
2022-09-11T21:25:52.975Z,12.38
2022-09-11T21:28:19.779Z,12.35
2022-09-11T21:30:46.343Z,12.33
2022-09-11T21:33:12.857Z,12.27
2022-09-11T21:35:39.639Z,12.25
2022-09-11T21:38:06.199Z,12.22
2022-09-11T21:40:32.764Z,12.20
2022-09-11T21:42:59.235Z,12.18
2022-09-11T21:45:25.783Z,12.11
2022-09-11T21:47:52.305Z,12.08
2022-09-11T21:50:18.903Z,12.06
2022-09-11T21:52:45.394Z,12.03
2022-09-11T21:55:12.178Z,12.01
2022-09-11T21:57:38.727Z,11.97
2022-09-11T22:00:09.362Z,11.96
2022-09-11T22:02:35.986Z,11.91
2022-09-11T22:05:04.066Z,11.88
2022-09-11T22:07:31.799Z,11.87
2022-09-11T22:09:59.208Z,11.86
2022-09-11T22:12:25.960Z,11.82
2022-09-11T22:14:52.997Z,11.78
2022-09-11T22:17:19.517Z,11.74
2022-09-11T22:19:46.079Z,11.70
2022-09-11T22:22:13.592Z,11.64
2022-09-11T22:24:40.433Z,11.62
2022-09-11T22:27:09.410Z,11.63
2022-09-11T22:29:36.992Z,11.59
2022-09-11T22:32:06.501Z,11.57
2022-09-11T22:34:33.859Z,11.48
2022-09-11T22:37:00.539Z,11.45
2022-09-11T22:39:29.203Z,11.43
2022-09-11T22:41:55.916Z,11.37
2022-09-11T22:44:22.555Z,11.37
2022-09-11T22:46:49.107Z,11.37
2022-09-11T22:49:15.692Z,11.38
2022-09-11T22:51:42.219Z,11.36
2022-09-11T22:54:08.737Z,11.31
2022-09-11T22:56:35.259Z,11.26
2022-09-11T22:59:01.738Z,11.24
2022-09-11T23:01:28.303Z,11.22
2022-09-11T23:03:54.921Z,11.22
2022-09-11T23:06:40.322Z,11.19
2022-09-11T23:09:10.486Z,11.17
2022-09-11T23:11:37.088Z,11.13
2022-09-11T23:14:03.670Z,11.08
2022-09-11T23:16:31.225Z,11.10
2022-09-11T23:19:00.524Z,11.07
2022-09-11T23:21:29.480Z,11.04
2022-09-11T23:23:57.542Z,10.99
2022-09-11T23:26:25.487Z,10.98
2022-09-11T23:28:52.540Z,10.95
2022-09-11T23:31:21.871Z,10.91
2022-09-11T23:33:48.727Z,10.89
2022-09-11T23:36:15.782Z,10.85
2022-09-11T23:38:46.647Z,10.80
2022-09-11T23:41:14.661Z,10.78
2022-09-11T23:43:41.796Z,10.73
2022-09-11T23:46:09.030Z,10.71
2022-09-11T23:48:36.089Z,10.67
2022-09-11T23:51:02.622Z,10.68
2022-09-11T23:53:29.851Z,10.67
2022-09-11T23:55:57.257Z,10.65
2022-09-11T23:58:24.726Z,10.63
